createdAt,value
2018-11-12T00:03:28.663Z,61.60
2018-11-12T00:08:32.485Z,61.50
2018-11-12T00:13:36.210Z,61.50
2018-11-12T00:18:39.994Z,61.60
2018-11-12T00:23:44.030Z,61.50
2018-11-12T00:28:47.817Z,61.60
2018-11-12T00:33:51.695Z,62.40
2018-11-12T00:38:55.672Z,61.60
2018-11-12T00:44:00.020Z,61.50
2018-11-12T00:49:03.808Z,61.60
2018-11-12T00:54:07.968Z,61.50
2018-11-12T00:59:11.733Z,61.50
2018-11-12T01:04:15.853Z,61.60
2018-11-12T01:09:19.602Z,61.60
2018-11-12T01:14:23.904Z,61.70
2018-11-12T01:19:27.903Z,61.50
2018-11-12T01:24:31.670Z,61.60
2018-11-12T01:29:35.418Z,61.60
2018-11-12T01:34:39.152Z,61.70
2018-11-12T01:39:43.032Z,61.80
2018-11-12T01:44:46.870Z,61.80
2018-11-12T01:49:50.640Z,62.00
2018-11-12T01:54:54.350Z,62.00
2018-11-12T01:59:58.010Z,61.80
2018-11-12T02:05:01.929Z,61.60
2018-11-12T02:10:06.815Z,61.60
2018-11-12T02:15:13.556Z,61.70
2018-11-12T02:20:18.659Z,61.80
2018-11-12T02:25:22.570Z,61.90
2018-11-12T02:30:31.905Z,62.00
2018-11-12T02:35:35.628Z,62.00
2018-11-12T02:40:39.543Z,62.20
2018-11-12T02:45:43.550Z,62.20
2018-11-12T02:50:47.603Z,62.10
2018-11-12T02:55:51.502Z,62.20
2018-11-12T03:00:55.281Z,62.30
2018-11-12T03:05:59.189Z,62.30
2018-11-12T03:11:03.215Z,62.30
2018-11-12T03:16:07.252Z,62.30
2018-11-12T03:21:11.254Z,62.30
2018-11-12T03:26:15.639Z,62.30
2018-11-12T03:31:19.613Z,62.20
2018-11-12T03:36:23.237Z,62.20
2018-11-12T03:41:27.253Z,62.20
2018-11-12T03:46:31.117Z,62.20
2018-11-12T03:51:35.446Z,62.20
2018-11-12T03:56:39.264Z,62.30
2018-11-12T04:01:44.453Z,62.20
2018-11-12T04:06:48.689Z,62.30
2018-11-12T04:11:52.606Z,62.60
2018-11-12T04:16:56.350Z,62.60
2018-11-12T04:22:00.667Z,62.60
2018-11-12T04:27:04.910Z,62.60
2018-11-12T04:32:08.856Z,62.70
2018-11-12T04:37:12.953Z,62.80
2018-11-12T04:42:17.007Z,62.90
2018-11-12T04:47:20.759Z,62.90
2018-11-12T04:52:25.358Z,62.90
2018-11-12T04:57:29.272Z,63.00
2018-11-12T05:02:33.003Z,62.90
2018-11-12T05:07:37.048Z,63.10
2018-11-12T05:12:41.648Z,63.10
2018-11-12T05:17:46.228Z,63.10
2018-11-12T05:22:50.227Z,63.20
2018-11-12T05:27:54.045Z,63.20
2018-11-12T05:32:58.431Z,63.30
2018-11-12T05:38:06.223Z,63.30
2018-11-12T05:43:10.712Z,63.30
2018-11-12T05:48:14.587Z,63.40
2018-11-12T05:53:18.389Z,63.40
2018-11-12T05:58:23.250Z,63.40
2018-11-12T06:03:26.830Z,63.50
2018-11-12T06:08:30.830Z,63.40
2018-11-12T06:13:34.513Z,63.50
2018-11-12T06:18:38.718Z,63.60
2018-11-12T06:23:45.358Z,63.50
2018-11-12T06:28:49.492Z,63.50
2018-11-12T06:33:53.167Z,63.50
2018-11-12T06:38:56.964Z,63.60
2018-11-12T06:44:01.146Z,63.60
2018-11-12T06:49:04.799Z,63.70
2018-11-12T06:54:08.447Z,63.70
2018-11-12T06:59:12.137Z,63.70
2018-11-12T07:04:16.075Z,63.70
2018-11-12T07:09:20.179Z,63.80
2018-11-12T07:14:23.881Z,63.70
2018-11-12T07:19:27.509Z,63.80
2018-11-12T07:24:49.712Z,63.90
2018-11-12T07:29:53.584Z,64.00
2018-11-12T07:34:57.294Z,63.90
2018-11-12T07:40:00.963Z,63.90
2018-11-12T07:45:05.714Z,64.00
2018-11-12T07:50:11.759Z,64.10
2018-11-12T07:55:17.873Z,64.10
2018-11-12T08:00:24.121Z,64.10
2018-11-12T08:05:27.938Z,64.20
2018-11-12T08:10:32.194Z,64.20
2018-11-12T08:15:36.229Z,64.20
2018-11-12T08:20:39.903Z,64.20
2018-11-12T08:25:43.698Z,64.20
2018-11-12T08:30:47.568Z,64.20
2018-11-12T08:35:51.220Z,64.30
2018-11-12T08:40:55.629Z,64.30
2018-11-12T08:45:59.333Z,64.30
2018-11-12T08:51:02.946Z,64.40
2018-11-12T08:56:06.617Z,65.30
2018-11-12T09:01:10.960Z,64.50
2018-11-12T09:06:14.619Z,65.40
2018-11-12T09:11:18.702Z,64.60
2018-11-12T09:16:22.610Z,64.70
2018-11-12T09:21:26.667Z,64.60
2018-11-12T09:26:31.306Z,65.60
2018-11-12T09:31:35.045Z,65.70
2018-11-12T09:36:38.713Z,65.30
2018-11-12T09:41:42.669Z,64.90
2018-11-12T09:46:46.721Z,65.00
2018-11-12T09:51:50.479Z,64.90
2018-11-12T09:56:54.245Z,64.90
2018-11-12T10:01:58.467Z,65.10
2018-11-12T10:07:03.373Z,64.90
2018-11-12T10:12:09.152Z,65.00
2018-11-12T10:17:13.166Z,65.10
2018-11-12T10:22:13.753Z,65.20
2018-11-12T10:27:17.482Z,65.20
2018-11-12T10:32:21.169Z,65.20
2018-11-12T10:37:24.851Z,65.20
2018-11-12T10:42:28.490Z,65.20
2018-11-12T10:47:32.553Z,65.20
2018-11-12T10:52:36.745Z,65.20
2018-11-12T10:57:41.362Z,65.40
2018-11-12T11:02:50.526Z,65.50
2018-11-12T11:07:54.740Z,65.50
2018-11-12T11:12:59.949Z,65.40
2018-11-12T11:18:03.713Z,65.40
2018-11-12T11:23:07.369Z,65.50
2018-11-12T11:28:11.027Z,65.50
2018-11-12T11:33:14.702Z,65.40
2018-11-12T11:38:18.336Z,65.30
2018-11-12T11:43:22.025Z,65.50
2018-11-12T11:48:26.064Z,65.60
2018-11-12T11:53:29.754Z,65.60
2018-11-12T11:58:33.401Z,65.40
2018-11-12T12:03:37.046Z,65.40
2018-11-12T12:08:40.715Z,65.30
2018-11-12T12:13:44.775Z,65.40
2018-11-12T12:18:48.555Z,65.40
2018-11-12T12:23:52.329Z,65.30
2018-11-12T12:28:56.613Z,65.40
2018-11-12T12:34:00.526Z,65.50
2018-11-12T12:39:05.703Z,65.40
2018-11-12T12:44:09.944Z,65.40
2018-11-12T12:49:14.036Z,65.40
2018-11-12T12:54:17.813Z,65.40
2018-11-12T12:59:21.616Z,65.50
2018-11-12T13:04:25.538Z,65.70
2018-11-12T13:09:29.408Z,65.90
2018-11-12T13:14:33.091Z,65.70
2018-11-12T13:19:36.791Z,65.60
2018-11-12T13:24:40.834Z,65.50
2018-11-12T13:29:44.429Z,65.60
2018-11-12T13:34:48.310Z,65.60
2018-11-12T13:39:52.008Z,66.50
2018-11-12T13:44:56.217Z,65.70
2018-11-12T13:49:59.958Z,66.50
2018-11-12T13:55:04.155Z,65.90
2018-11-12T14:00:13.279Z,66.00
2018-11-12T14:05:18.345Z,65.90
2018-11-12T14:10:24.441Z,65.90
2018-11-12T14:15:28.154Z,65.90
2018-11-12T14:20:32.383Z,65.90
2018-11-12T14:25:35.799Z,66.40
2018-11-12T14:30:39.493Z,65.70
2018-11-12T14:35:43.267Z,65.80
2018-11-12T14:40:47.058Z,65.80
2018-11-12T14:45:51.435Z,65.70
2018-11-12T14:50:55.233Z,65.80
2018-11-12T14:55:58.982Z,65.80
2018-11-12T15:01:02.996Z,65.50
2018-11-12T15:06:06.704Z,65.70
2018-11-12T15:11:10.645Z,65.70
2018-11-12T15:16:14.197Z,65.70
2018-11-12T15:21:18.308Z,65.70
2018-11-12T15:26:22.018Z,65.80
2018-11-12T15:31:25.777Z,65.60
2018-11-12T15:36:29.617Z,65.70
2018-11-12T15:41:33.318Z,65.80
2018-11-12T15:46:37.090Z,65.80
2018-11-12T15:51:41.369Z,65.60
2018-11-12T15:56:45.080Z,65.70
2018-11-12T16:01:49.067Z,65.60
2018-11-12T16:06:52.860Z,65.70
2018-11-12T16:11:56.871Z,65.70
2018-11-12T16:17:00.504Z,65.70
2018-11-12T16:22:04.530Z,65.70
2018-11-12T16:27:08.445Z,66.20
2018-11-12T16:32:12.273Z,65.70
2018-11-12T16:37:16.262Z,65.60
2018-11-12T16:42:20.223Z,65.70
2018-11-12T16:47:24.357Z,65.70
2018-11-12T16:52:28.150Z,65.70
2018-11-12T16:57:31.844Z,66.50
2018-11-12T17:02:36.020Z,65.60
2018-11-12T17:07:39.777Z,65.40
2018-11-12T17:12:44.371Z,65.30
2018-11-12T17:17:48.275Z,65.50
2018-11-12T17:22:52.517Z,65.40
2018-11-12T17:27:56.555Z,65.30
2018-11-12T17:33:00.219Z,65.30
2018-11-12T17:38:03.782Z,65.40
2018-11-12T17:43:08.654Z,65.50
2018-11-12T17:48:22.274Z,65.40
2018-11-12T17:53:25.927Z,65.30
2018-11-12T17:58:29.985Z,65.40
2018-11-12T18:03:33.790Z,65.50
2018-11-12T18:08:37.427Z,65.50
2018-11-12T18:13:41.313Z,65.50
2018-11-12T18:18:45.268Z,65.50
2018-11-12T18:23:49.022Z,65.50
2018-11-12T18:28:52.682Z,65.40
2018-11-12T18:33:56.937Z,65.40
2018-11-12T18:39:01.047Z,65.40
2018-11-12T18:44:04.705Z,65.50
2018-11-12T18:49:09.102Z,65.50
2018-11-12T18:54:13.602Z,65.30
2018-11-12T18:59:17.671Z,65.30
2018-11-12T19:04:21.692Z,65.30
2018-11-12T19:09:25.394Z,65.30
2018-11-12T19:14:29.170Z,65.30
2018-11-12T19:19:33.333Z,65.30
2018-11-12T19:24:37.377Z,65.40
2018-11-12T19:29:41.449Z,65.30
2018-11-12T19:34:45.306Z,65.40
2018-11-12T19:39:48.976Z,65.30
2018-11-12T19:44:52.704Z,65.40
2018-11-12T19:49:56.606Z,66.30
2018-11-12T19:55:00.591Z,65.30
2018-11-12T20:00:04.808Z,65.40
2018-11-12T20:05:09.467Z,65.40
2018-11-12T20:10:15.344Z,65.40
2018-11-12T20:15:21.029Z,65.30
2018-11-12T20:20:26.234Z,65.40
2018-11-12T20:25:30.174Z,65.40
2018-11-12T20:30:36.818Z,65.40
2018-11-12T20:35:40.957Z,65.40
2018-11-12T20:46:12.533Z,65.30
2018-11-12T20:51:16.334Z,65.30
2018-11-12T20:56:20.544Z,66.20
2018-11-12T21:01:24.645Z,65.40
2018-11-12T21:06:28.547Z,65.30
2018-11-12T21:11:32.380Z,65.30
2018-11-12T21:16:37.466Z,65.30
2018-11-12T21:21:41.282Z,65.50
2018-11-12T21:26:45.374Z,65.50
2018-11-12T21:31:50.587Z,65.40
2018-11-12T21:36:55.050Z,65.40
2018-11-12T21:42:04.833Z,66.20
2018-11-12T21:47:09.905Z,65.40
2018-11-12T21:52:14.965Z,65.40
2018-11-12T21:57:19.137Z,65.40
2018-11-12T22:02:23.404Z,65.40
2018-11-12T22:07:28.222Z,65.40
2018-11-12T22:12:33.001Z,65.40
2018-11-12T22:17:38.198Z,65.40
2018-11-12T22:22:42.666Z,65.50
2018-11-12T22:27:47.808Z,65.40
2018-11-12T22:32:53.120Z,65.40
2018-11-12T22:37:56.883Z,65.30
2018-11-12T22:43:00.665Z,65.30
2018-11-12T22:48:05.049Z,65.40
2018-11-12T22:53:08.683Z,65.30
2018-11-12T22:58:12.514Z,65.30
2018-11-12T23:03:16.146Z,65.30
2018-11-12T23:08:19.802Z,65.30
2018-11-12T23:13:23.965Z,65.20
2018-11-12T23:18:40.712Z,65.20
2018-11-12T23:23:44.513Z,65.10
2018-11-12T23:28:48.720Z,65.20
2018-11-12T23:33:53.125Z,65.20
2018-11-12T23:38:56.885Z,65.20
2018-11-12T23:44:00.683Z,65.20
2018-11-12T23:49:04.779Z,65.10
2018-11-12T23:54:08.748Z,65.10
2018-11-12T23:59:12.881Z,65.10
